sensor_id;sensor_type;location;lat;lon;timestamp;temperature;humidity
13482;DHT22;6813;60.352;15.746;2023-03-24T00:01:55;7.50;99.90
13482;DHT22;6813;60.352;15.746;2023-03-24T00:04:22;7.40;99.90
13482;DHT22;6813;60.352;15.746;2023-03-24T00:06:49;7.40;99.90
13482;DHT22;6813;60.352;15.746;2023-03-24T00:09:16;7.20;99.90
13482;DHT22;6813;60.352;15.746;2023-03-24T00:11:43;7.20;99.90
13482;DHT22;6813;60.352;15.746;2023-03-24T00:14:09;7.10;99.90
13482;DHT22;6813;60.352;15.746;2023-03-24T00:16:38;7.30;99.90
13482;DHT22;6813;60.352;15.746;2023-03-24T00:19:08;7.40;99.90
13482;DHT22;6813;60.352;15.746;2023-03-24T00:21:33;7.60;99.90
13482;DHT22;6813;60.352;15.746;2023-03-24T00:23:59;7.60;99.90
13482;DHT22;6813;60.352;15.746;2023-03-24T00:26:26;7.80;99.90
13482;DHT22;6813;60.352;15.746;2023-03-24T00:28:53;7.90;99.90
13482;DHT22;6813;60.352;15.746;2023-03-24T00:31:19;8.00;99.90
13482;DHT22;6813;60.352;15.746;2023-03-24T00:33:46;8.10;99.90
13482;DHT22;6813;60.352;15.746;2023-03-24T00:36:17;8.00;99.90
13482;DHT22;6813;60.352;15.746;2023-03-24T00:38:45;8.00;99.90
13482;DHT22;6813;60.352;15.746;2023-03-24T00:41:12;8.00;99.90
13482;DHT22;6813;60.352;15.746;2023-03-24T00:43:38;7.90;99.90
13482;DHT22;6813;60.352;15.746;2023-03-24T00:46:09;7.80;99.90
13482;DHT22;6813;60.352;15.746;2023-03-24T00:48:36;7.90;99.90
13482;DHT22;6813;60.352;15.746;2023-03-24T00:51:04;7.90;99.90
13482;DHT22;6813;60.352;15.746;2023-03-24T00:53:33;7.80;99.90
13482;DHT22;6813;60.352;15.746;2023-03-24T00:55:59;7.80;99.90
13482;DHT22;6813;60.352;15.746;2023-03-24T00:58:25;7.80;99.90
13482;DHT22;6813;60.352;15.746;2023-03-24T01:00:56;7.80;99.90
13482;DHT22;6813;60.352;15.746;2023-03-24T01:03:23;7.90;99.90
13482;DHT22;6813;60.352;15.746;2023-03-24T01:05:59;8.00;99.90
13482;DHT22;6813;60.352;15.746;2023-03-24T01:08:26;8.00;99.90
13482;DHT22;6813;60.352;15.746;2023-03-24T01:10:53;8.10;99.90
13482;DHT22;6813;60.352;15.746;2023-03-24T01:13:24;8.00;99.90
13482;DHT22;6813;60.352;15.746;2023-03-24T01:15:50;8.00;99.90
13482;DHT22;6813;60.352;15.746;2023-03-24T01:18:16;8.00;99.90
13482;DHT22;6813;60.352;15.746;2023-03-24T01:20:44;8.00;99.90
13482;DHT22;6813;60.352;15.746;2023-03-24T01:23:12;8.10;99.90
13482;DHT22;6813;60.352;15.746;2023-03-24T01:25:41;7.90;99.90
13482;DHT22;6813;60.352;15.746;2023-03-24T01:28:11;7.70;99.90
13482;DHT22;6813;60.352;15.746;2023-03-24T01:30:38;7.60;99.90
13482;DHT22;6813;60.352;15.746;2023-03-24T01:33:04;7.50;99.90
13482;DHT22;6813;60.352;15.746;2023-03-24T01:35:30;7.20;99.90
13482;DHT22;6813;60.352;15.746;2023-03-24T01:37:56;7.20;99.90
13482;DHT22;6813;60.352;15.746;2023-03-24T01:40:29;7.30;99.90
13482;DHT22;6813;60.352;15.746;2023-03-24T01:42:56;7.40;99.90
13482;DHT22;6813;60.352;15.746;2023-03-24T01:51:17;7.40;99.90
13482;DHT22;6813;60.352;15.746;2023-03-24T01:56:16;7.20;99.90
13482;DHT22;6813;60.352;15.746;2023-03-24T01:58:47;7.20;99.90
13482;DHT22;6813;60.352;15.746;2023-03-24T02:01:14;7.30;99.90
13482;DHT22;6813;60.352;15.746;2023-03-24T02:03:40;7.30;99.90
13482;DHT22;6813;60.352;15.746;2023-03-24T02:06:07;7.30;99.90
13482;DHT22;6813;60.352;15.746;2023-03-24T02:08:57;7.30;99.90
13482;DHT22;6813;60.352;15.746;2023-03-24T02:11:28;7.50;99.90
13482;DHT22;6813;60.352;15.746;2023-03-24T02:13:55;7.40;99.90
13482;DHT22;6813;60.352;15.746;2023-03-24T02:33:55;7.20;99.90
13482;DHT22;6813;60.352;15.746;2023-03-24T02:50:27;7.30;99.90
13482;DHT22;6813;60.352;15.746;2023-03-24T02:56:21;7.20;99.90
13482;DHT22;6813;60.352;15.746;2023-03-24T03:01:24;7.10;99.90
13482;DHT22;6813;60.352;15.746;2023-03-24T03:04:00;7.20;99.90
13482;DHT22;6813;60.352;15.746;2023-03-24T03:06:29;7.30;99.90
13482;DHT22;6813;60.352;15.746;2023-03-24T03:09:00;7.30;99.90
13482;DHT22;6813;60.352;15.746;2023-03-24T03:11:27;7.20;99.90
13482;DHT22;6813;60.352;15.746;2023-03-24T03:13:54;7.20;99.90
13482;DHT22;6813;60.352;15.746;2023-03-24T03:16:41;7.30;99.90
13482;DHT22;6813;60.352;15.746;2023-03-24T03:19:20;7.40;99.90
13482;DHT22;6813;60.352;15.746;2023-03-24T03:21:47;7.40;99.90
13482;DHT22;6813;60.352;15.746;2023-03-24T03:24:21;7.50;99.90
13482;DHT22;6813;60.352;15.746;2023-03-24T03:26:54;7.40;99.90
13482;DHT22;6813;60.352;15.746;2023-03-24T03:29:25;7.50;99.90
13482;DHT22;6813;60.352;15.746;2023-03-24T03:32:00;7.30;99.90
13482;DHT22;6813;60.352;15.746;2023-03-24T03:34:43;7.10;99.90
13482;DHT22;6813;60.352;15.746;2023-03-24T03:37:40;7.10;99.90
13482;DHT22;6813;60.352;15.746;2023-03-24T03:40:26;7.10;99.90
13482;DHT22;6813;60.352;15.746;2023-03-24T03:42:56;7.10;99.90
13482;DHT22;6813;60.352;15.746;2023-03-24T03:45:22;7.10;99.90
13482;DHT22;6813;60.352;15.746;2023-03-24T03:47:48;7.20;99.90
13482;DHT22;6813;60.352;15.746;2023-03-24T03:50:13;7.30;99.90
13482;DHT22;6813;60.352;15.746;2023-03-24T03:52:40;7.50;99.90
13482;DHT22;6813;60.352;15.746;2023-03-24T03:55:06;7.70;99.90
13482;DHT22;6813;60.352;15.746;2023-03-24T03:57:34;7.80;99.90
13482;DHT22;6813;60.352;15.746;2023-03-24T04:00:02;7.90;99.90
13482;DHT22;6813;60.352;15.746;2023-03-24T04:05:29;7.90;99.90
13482;DHT22;6813;60.352;15.746;2023-03-24T04:19:43;7.70;99.90
13482;DHT22;6813;60.352;15.746;2023-03-24T04:22:26;7.70;99.90
13482;DHT22;6813;60.352;15.746;2023-03-24T04:28:08;7.30;99.90
13482;DHT22;6813;60.352;15.746;2023-03-24T04:31:03;7.30;99.90
13482;DHT22;6813;60.352;15.746;2023-03-24T04:33:48;7.50;99.90
13482;DHT22;6813;60.352;15.746;2023-03-24T04:36:30;7.50;99.90
13482;DHT22;6813;60.352;15.746;2023-03-24T04:38:59;7.50;99.90
13482;DHT22;6813;60.352;15.746;2023-03-24T04:41:28;7.60;99.90
13482;DHT22;6813;60.352;15.746;2023-03-24T04:43:55;7.70;99.90
13482;DHT22;6813;60.352;15.746;2023-03-24T04:46:23;7.80;99.90
13482;DHT22;6813;60.352;15.746;2023-03-24T04:48:49;7.80;99.90
13482;DHT22;6813;60.352;15.746;2023-03-24T04:51:19;7.70;99.90
13482;DHT22;6813;60.352;15.746;2023-03-24T04:53:45;7.70;99.90
13482;DHT22;6813;60.352;15.746;2023-03-24T04:56:40;7.70;99.90
13482;DHT22;6813;60.352;15.746;2023-03-24T04:59:08;7.80;99.90
13482;DHT22;6813;60.352;15.746;2023-03-24T05:01:34;7.70;99.90
13482;DHT22;6813;60.352;15.746;2023-03-24T05:04:02;7.80;99.90
13482;DHT22;6813;60.352;15.746;2023-03-24T05:06:29;7.60;99.90
13482;DHT22;6813;60.352;15.746;2023-03-24T05:08:55;7.60;99.90
13482;DHT22;6813;60.352;15.746;2023-03-24T05:11:24;7.60;99.90
13482;DHT22;6813;60.352;15.746;2023-03-24T05:13:50;7.60;99.90
13482;DHT22;6813;60.352;15.746;2023-03-24T05:16:16;7.50;99.90
13482;DHT22;6813;60.352;15.746;2023-03-24T05:18:41;7.50;99.90
13482;DHT22;6813;60.352;15.746;2023-03-24T05:21:07;7.60;99.90
13482;DHT22;6813;60.352;15.746;2023-03-24T05:23:33;7.70;99.90
13482;DHT22;6813;60.352;15.746;2023-03-24T05:25:59;7.50;99.90
13482;DHT22;6813;60.352;15.746;2023-03-24T05:28:26;7.40;99.90
13482;DHT22;6813;60.352;15.746;2023-03-24T05:30:51;7.50;99.90
13482;DHT22;6813;60.352;15.746;2023-03-24T05:33:21;7.50;99.90
13482;DHT22;6813;60.352;15.746;2023-03-24T05:35:49;7.50;99.90
13482;DHT22;6813;60.352;15.746;2023-03-24T05:38:24;7.40;99.90
13482;DHT22;6813;60.352;15.746;2023-03-24T05:40:50;7.50;99.90
13482;DHT22;6813;60.352;15.746;2023-03-24T05:43:19;7.60;99.90
13482;DHT22;6813;60.352;15.746;2023-03-24T05:45:45;7.60;99.90
13482;DHT22;6813;60.352;15.746;2023-03-24T05:48:10;7.80;99.90
13482;DHT22;6813;60.352;15.746;2023-03-24T05:50:36;7.90;99.90
13482;DHT22;6813;60.352;15.746;2023-03-24T05:53:02;7.90;99.90
13482;DHT22;6813;60.352;15.746;2023-03-24T05:55:36;7.90;99.90
13482;DHT22;6813;60.352;15.746;2023-03-24T05:58:05;7.90;99.90
13482;DHT22;6813;60.352;15.746;2023-03-24T06:00:34;8.00;99.90
13482;DHT22;6813;60.352;15.746;2023-03-24T06:03:00;8.00;99.90
13482;DHT22;6813;60.352;15.746;2023-03-24T06:05:26;8.00;99.90
13482;DHT22;6813;60.352;15.746;2023-03-24T06:07:52;8.00;99.90
13482;DHT22;6813;60.352;15.746;2023-03-24T06:10:24;8.10;99.90
13482;DHT22;6813;60.352;15.746;2023-03-24T06:12:51;8.10;99.90
13482;DHT22;6813;60.352;15.746;2023-03-24T06:15:21;8.10;99.90
13482;DHT22;6813;60.352;15.746;2023-03-24T06:17:47;8.10;99.90
13482;DHT22;6813;60.352;15.746;2023-03-24T06:20:15;8.00;99.90
13482;DHT22;6813;60.352;15.746;2023-03-24T06:22:47;7.90;99.90
13482;DHT22;6813;60.352;15.746;2023-03-24T06:25:17;8.00;99.90
13482;DHT22;6813;60.352;15.746;2023-03-24T06:27:44;8.10;99.90
13482;DHT22;6813;60.352;15.746;2023-03-24T06:30:15;8.40;99.90
13482;DHT22;6813;60.352;15.746;2023-03-24T06:32:41;8.60;99.90
13482;DHT22;6813;60.352;15.746;2023-03-24T06:35:12;9.00;99.90
13482;DHT22;6813;60.352;15.746;2023-03-24T06:37:39;9.00;99.90
13482;DHT22;6813;60.352;15.746;2023-03-24T06:40:06;8.90;99.90
13482;DHT22;6813;60.352;15.746;2023-03-24T06:42:35;8.90;99.90
13482;DHT22;6813;60.352;15.746;2023-03-24T06:45:00;8.90;99.90
13482;DHT22;6813;60.352;15.746;2023-03-24T06:47:29;8.90;99.90
13482;DHT22;6813;60.352;15.746;2023-03-24T06:49:55;9.00;99.90
13482;DHT22;6813;60.352;15.746;2023-03-24T06:52:21;9.10;99.90
13482;DHT22;6813;60.352;15.746;2023-03-24T06:54:47;9.30;99.90
13482;DHT22;6813;60.352;15.746;2023-03-24T06:57:13;9.30;99.90
13482;DHT22;6813;60.352;15.746;2023-03-24T06:59:39;9.30;99.90
13482;DHT22;6813;60.352;15.746;2023-03-24T07:02:05;9.10;99.90
13482;DHT22;6813;60.352;15.746;2023-03-24T07:04:31;9.00;99.90
13482;DHT22;6813;60.352;15.746;2023-03-24T07:07:01;9.10;99.90
13482;DHT22;6813;60.352;15.746;2023-03-24T07:09:27;9.00;99.90
13482;DHT22;6813;60.352;15.746;2023-03-24T07:11:57;9.00;99.90
13482;DHT22;6813;60.352;15.746;2023-03-24T07:14:22;9.00;99.90
13482;DHT22;6813;60.352;15.746;2023-03-24T07:16:51;9.00;99.90
13482;DHT22;6813;60.352;15.746;2023-03-24T07:19:17;9.10;99.90
13482;DHT22;6813;60.352;15.746;2023-03-24T07:21:43;9.10;99.90
13482;DHT22;6813;60.352;15.746;2023-03-24T07:24:09;9.20;99.90
13482;DHT22;6813;60.352;15.746;2023-03-24T07:26:37;9.20;99.90
13482;DHT22;6813;60.352;15.746;2023-03-24T07:29:03;9.20;99.90
13482;DHT22;6813;60.352;15.746;2023-03-24T07:31:29;9.50;99.90
13482;DHT22;6813;60.352;15.746;2023-03-24T07:33:57;9.80;99.90
13482;DHT22;6813;60.352;15.746;2023-03-24T07:36:22;10.20;99.90
13482;DHT22;6813;60.352;15.746;2023-03-24T07:38:48;10.50;99.90
13482;DHT22;6813;60.352;15.746;2023-03-24T07:41:14;10.80;99.90
13482;DHT22;6813;60.352;15.746;2023-03-24T07:43:39;11.00;99.90
13482;DHT22;6813;60.352;15.746;2023-03-24T07:46:05;11.20;99.90
13482;DHT22;6813;60.352;15.746;2023-03-24T07:48:31;11.40;99.90
13482;DHT22;6813;60.352;15.746;2023-03-24T07:50:57;11.40;99.90
13482;DHT22;6813;60.352;15.746;2023-03-24T07:53:22;11.20;99.90
13482;DHT22;6813;60.352;15.746;2023-03-24T07:55:48;11.10;99.90
13482;DHT22;6813;60.352;15.746;2023-03-24T07:58:14;11.10;99.90
13482;DHT22;6813;60.352;15.746;2023-03-24T08:00:39;11.10;99.90
13482;DHT22;6813;60.352;15.746;2023-03-24T08:03:06;11.20;99.90
13482;DHT22;6813;60.352;15.746;2023-03-24T08:05:33;11.30;99.90
13482;DHT22;6813;60.352;15.746;2023-03-24T08:07:59;11.40;99.90
13482;DHT22;6813;60.352;15.746;2023-03-24T08:10:29;11.40;99.90
13482;DHT22;6813;60.352;15.746;2023-03-24T08:12:56;11.10;99.90
13482;DHT22;6813;60.352;15.746;2023-03-24T08:15:22;10.90;99.90
13482;DHT22;6813;60.352;15.746;2023-03-24T08:17:49;10.70;99.90
13482;DHT22;6813;60.352;15.746;2023-03-24T08:20:15;10.50;99.90
13482;DHT22;6813;60.352;15.746;2023-03-24T08:22:45;10.30;99.90
13482;DHT22;6813;60.352;15.746;2023-03-24T08:25:17;10.30;99.90
13482;DHT22;6813;60.352;15.746;2023-03-24T08:27:44;10.40;99.90
13482;DHT22;6813;60.352;15.746;2023-03-24T08:30:13;10.40;99.90
13482;DHT22;6813;60.352;15.746;2023-03-24T08:32:57;10.50;99.90
13482;DHT22;6813;60.352;15.746;2023-03-24T08:35:29;10.60;99.90
13482;DHT22;6813;60.352;15.746;2023-03-24T08:37:56;10.50;99.90
13482;DHT22;6813;60.352;15.746;2023-03-24T08:40:25;10.50;99.90
13482;DHT22;6813;60.352;15.746;2023-03-24T08:43:00;10.50;99.90
13482;DHT22;6813;60.352;15.746;2023-03-24T08:45:29;10.30;99.90
13482;DHT22;6813;60.352;15.746;2023-03-24T08:47:57;10.30;99.90
13482;DHT22;6813;60.352;15.746;2023-03-24T08:50:27;10.20;99.90
13482;DHT22;6813;60.352;15.746;2023-03-24T08:52:54;10.20;99.90
13482;DHT22;6813;60.352;15.746;2023-03-24T08:55:20;10.20;99.90
13482;DHT22;6813;60.352;15.746;2023-03-24T08:57:47;10.20;99.90
13482;DHT22;6813;60.352;15.746;2023-03-24T09:00:14;10.20;99.90
13482;DHT22;6813;60.352;15.746;2023-03-24T09:02:45;10.20;99.90
13482;DHT22;6813;60.352;15.746;2023-03-24T09:05:11;10.20;99.90
13482;DHT22;6813;60.352;15.746;2023-03-24T09:07:38;10.20;99.90
13482;DHT22;6813;60.352;15.746;2023-03-24T09:10:07;10.30;99.90
13482;DHT22;6813;60.352;15.746;2023-03-24T09:12:34;10.00;99.90
13482;DHT22;6813;60.352;15.746;2023-03-24T09:15:00;10.00;99.90
13482;DHT22;6813;60.352;15.746;2023-03-24T09:17:26;10.00;99.90
13482;DHT22;6813;60.352;15.746;2023-03-24T09:19:52;10.00;99.90
13482;DHT22;6813;60.352;15.746;2023-03-24T09:22:17;10.00;99.90
13482;DHT22;6813;60.352;15.746;2023-03-24T09:24:43;10.00;99.90
13482;DHT22;6813;60.352;15.746;2023-03-24T09:27:09;10.00;99.90
13482;DHT22;6813;60.352;15.746;2023-03-24T09:29:35;9.90;99.90
13482;DHT22;6813;60.352;15.746;2023-03-24T09:32:01;10.00;99.90
13482;DHT22;6813;60.352;15.746;2023-03-24T09:34:27;10.00;99.90
13482;DHT22;6813;60.352;15.746;2023-03-24T09:36:53;10.10;99.90
13482;DHT22;6813;60.352;15.746;2023-03-24T09:39:19;10.10;99.90
13482;DHT22;6813;60.352;15.746;2023-03-24T09:41:44;10.20;99.90
13482;DHT22;6813;60.352;15.746;2023-03-24T09:44:36;10.10;99.90
13482;DHT22;6813;60.352;15.746;2023-03-24T09:49:40;10.20;99.90
13482;DHT22;6813;60.352;15.746;2023-03-24T09:52:09;10.30;99.90
13482;DHT22;6813;60.352;15.746;2023-03-24T09:54:57;10.30;99.90
13482;DHT22;6813;60.352;15.746;2023-03-24T09:57:37;10.40;99.90
13482;DHT22;6813;60.352;15.746;2023-03-24T10:00:27;10.40;99.90
13482;DHT22;6813;60.352;15.746;2023-03-24T10:02:59;10.40;99.90
13482;DHT22;6813;60.352;15.746;2023-03-24T10:05:40;10.40;99.90
13482;DHT22;6813;60.352;15.746;2023-03-24T10:08:14;10.40;99.90
13482;DHT22;6813;60.352;15.746;2023-03-24T10:13:54;10.00;99.90
13482;DHT22;6813;60.352;15.746;2023-03-24T10:24:50;9.80;99.90
13482;DHT22;6813;60.352;15.746;2023-03-24T10:27:31;10.00;99.90
13482;DHT22;6813;60.352;15.746;2023-03-24T10:30:21;9.90;99.90
13482;DHT22;6813;60.352;15.746;2023-03-24T10:32:48;9.90;99.90
13482;DHT22;6813;60.352;15.746;2023-03-24T10:35:34;9.90;99.90
13482;DHT22;6813;60.352;15.746;2023-03-24T10:38:04;10.00;99.90
13482;DHT22;6813;60.352;15.746;2023-03-24T10:40:39;10.00;99.90
13482;DHT22;6813;60.352;15.746;2023-03-24T10:43:06;9.90;99.90
13482;DHT22;6813;60.352;15.746;2023-03-24T10:45:33;10.00;99.90
13482;DHT22;6813;60.352;15.746;2023-03-24T10:48:02;10.00;99.90
13482;DHT22;6813;60.352;15.746;2023-03-24T10:50:31;9.80;99.90
13482;DHT22;6813;60.352;15.746;2023-03-24T10:52:58;9.30;99.90
13482;DHT22;6813;60.352;15.746;2023-03-24T10:55:29;9.10;99.90
13482;DHT22;6813;60.352;15.746;2023-03-24T10:57:58;8.70;99.90
13482;DHT22;6813;60.352;15.746;2023-03-24T11:00:31;8.60;99.90
13482;DHT22;6813;60.352;15.746;2023-03-24T11:03:11;8.70;99.90
13482;DHT22;6813;60.352;15.746;2023-03-24T11:05:40;8.90;99.90
13482;DHT22;6813;60.352;15.746;2023-03-24T11:10:42;8.90;99.90
13482;DHT22;6813;60.352;15.746;2023-03-24T11:13:26;8.90;99.90
13482;DHT22;6813;60.352;15.746;2023-03-24T11:15:55;8.60;99.90
13482;DHT22;6813;60.352;15.746;2023-03-24T11:18:22;8.90;99.90
13482;DHT22;6813;60.352;15.746;2023-03-24T11:20:52;9.10;99.90
13482;DHT22;6813;60.352;15.746;2023-03-24T11:23:33;9.40;99.90
13482;DHT22;6813;60.352;15.746;2023-03-24T11:26:15;9.30;99.90
13482;DHT22;6813;60.352;15.746;2023-03-24T11:28:46;9.30;99.90
13482;DHT22;6813;60.352;15.746;2023-03-24T11:31:23;9.50;99.90
13482;DHT22;6813;60.352;15.746;2023-03-24T11:34:05;9.30;99.90
13482;DHT22;6813;60.352;15.746;2023-03-24T11:36:37;9.40;99.90
13482;DHT22;6813;60.352;15.746;2023-03-24T11:39:24;9.30;99.90
13482;DHT22;6813;60.352;15.746;2023-03-24T11:44:48;9.40;99.90
13482;DHT22;6813;60.352;15.746;2023-03-24T11:47:17;9.20;99.90
13482;DHT22;6813;60.352;15.746;2023-03-24T11:52:47;8.70;99.90
13482;DHT22;6813;60.352;15.746;2023-03-24T11:55:39;8.40;99.90
13482;DHT22;6813;60.352;15.746;2023-03-24T11:58:24;8.40;99.90
13482;DHT22;6813;60.352;15.746;2023-03-24T12:01:42;8.50;99.90
13482;DHT22;6813;60.352;15.746;2023-03-24T12:09:40;8.30;99.90
13482;DHT22;6813;60.352;15.746;2023-03-24T12:12:27;8.20;99.90
13482;DHT22;6813;60.352;15.746;2023-03-24T12:17:52;7.90;99.90
13482;DHT22;6813;60.352;15.746;2023-03-24T12:23:12;7.90;99.90
13482;DHT22;6813;60.352;15.746;2023-03-24T12:37:01;7.70;99.90
13482;DHT22;6813;60.352;15.746;2023-03-24T12:39:37;7.70;99.90
13482;DHT22;6813;60.352;15.746;2023-03-24T12:44:43;7.50;99.90
13482;DHT22;6813;60.352;15.746;2023-03-24T12:52:59;7.50;99.90
13482;DHT22;6813;60.352;15.746;2023-03-24T12:55:42;7.50;99.90
13482;DHT22;6813;60.352;15.746;2023-03-24T12:58:19;7.50;99.90
13482;DHT22;6813;60.352;15.746;2023-03-24T13:03:26;7.40;99.90
13482;DHT22;6813;60.352;15.746;2023-03-24T13:05:55;7.50;99.90
13482;DHT22;6813;60.352;15.746;2023-03-24T13:08:23;7.50;99.90
13482;DHT22;6813;60.352;15.746;2023-03-24T13:11:14;7.50;99.90
13482;DHT22;6813;60.352;15.746;2023-03-24T13:13:42;7.50;99.90
13482;DHT22;6813;60.352;15.746;2023-03-24T13:16:15;7.50;99.90
13482;DHT22;6813;60.352;15.746;2023-03-24T13:18:57;7.50;99.90
13482;DHT22;6813;60.352;15.746;2023-03-24T13:21:25;7.50;99.90
13482;DHT22;6813;60.352;15.746;2023-03-24T13:24:07;7.50;99.90
13482;DHT22;6813;60.352;15.746;2023-03-24T13:34:54;7.50;99.90
13482;DHT22;6813;60.352;15.746;2023-03-24T13:40:08;7.60;99.90
13482;DHT22;6813;60.352;15.746;2023-03-24T13:42:42;7.70;99.90
13482;DHT22;6813;60.352;15.746;2023-03-24T13:45:23;7.60;99.90
13482;DHT22;6813;60.352;15.746;2023-03-24T13:48:14;7.60;99.90
13482;DHT22;6813;60.352;15.746;2023-03-24T13:56:09;7.30;99.90
13482;DHT22;6813;60.352;15.746;2023-03-24T13:59:04;7.40;99.90
13482;DHT22;6813;60.352;15.746;2023-03-24T14:01:39;7.30;99.90
13482;DHT22;6813;60.352;15.746;2023-03-24T14:06:48;7.60;99.90
13482;DHT22;6813;60.352;15.746;2023-03-24T14:11:45;7.60;99.90
13482;DHT22;6813;60.352;15.746;2023-03-24T14:17:21;7.60;99.90
13482;DHT22;6813;60.352;15.746;2023-03-24T14:19:40;7.50;99.90
13482;DHT22;6813;60.352;15.746;2023-03-24T14:22:45;7.30;99.90
13482;DHT22;6813;60.352;15.746;2023-03-24T14:27:47;7.60;99.90
13482;DHT22;6813;60.352;15.746;2023-03-24T14:32:48;7.40;99.90
13482;DHT22;6813;60.352;15.746;2023-03-24T14:35:24;7.50;99.90
13482;DHT22;6813;60.352;15.746;2023-03-24T14:37:56;7.50;99.90
13482;DHT22;6813;60.352;15.746;2023-03-24T14:40:27;7.50;99.90
13482;DHT22;6813;60.352;15.746;2023-03-24T14:42:56;7.40;99.90
13482;DHT22;6813;60.352;15.746;2023-03-24T14:45:39;7.50;99.90
13482;DHT22;6813;60.352;15.746;2023-03-24T14:50:53;7.50;99.90
13482;DHT22;6813;60.352;15.746;2023-03-24T14:53:19;7.50;99.90
13482;DHT22;6813;60.352;15.746;2023-03-24T14:55:47;7.60;99.90
13482;DHT22;6813;60.352;15.746;2023-03-24T14:58:29;7.70;99.90
13482;DHT22;6813;60.352;15.746;2023-03-24T15:00:59;7.80;99.90
13482;DHT22;6813;60.352;15.746;2023-03-24T15:06:24;7.90;99.90
13482;DHT22;6813;60.352;15.746;2023-03-24T15:08:51;7.70;99.90
13482;DHT22;6813;60.352;15.746;2023-03-24T15:11:35;7.50;99.90
13482;DHT22;6813;60.352;15.746;2023-03-24T15:14:04;7.40;99.90
13482;DHT22;6813;60.352;15.746;2023-03-24T15:16:33;7.40;99.90
13482;DHT22;6813;60.352;15.746;2023-03-24T15:19:09;7.30;99.90
13482;DHT22;6813;60.352;15.746;2023-03-24T15:21:49;7.30;99.90
13482;DHT22;6813;60.352;15.746;2023-03-24T15:26:54;7.30;99.90
13482;DHT22;6813;60.352;15.746;2023-03-24T15:29:21;7.40;99.90
13482;DHT22;6813;60.352;15.746;2023-03-24T15:31:48;7.50;99.90
13482;DHT22;6813;60.352;15.746;2023-03-24T15:34:36;7.40;99.90
13482;DHT22;6813;60.352;15.746;2023-03-24T15:37:05;7.40;99.90
13482;DHT22;6813;60.352;15.746;2023-03-24T15:39:48;7.60;99.90
13482;DHT22;6813;60.352;15.746;2023-03-24T15:42:17;7.80;99.90
13482;DHT22;6813;60.352;15.746;2023-03-24T15:44:44;7.90;99.90
13482;DHT22;6813;60.352;15.746;2023-03-24T15:47:19;8.10;99.90
13482;DHT22;6813;60.352;15.746;2023-03-24T15:49:59;8.00;99.90
13482;DHT22;6813;60.352;15.746;2023-03-24T15:52:34;8.00;99.90
13482;DHT22;6813;60.352;15.746;2023-03-24T15:57:38;8.30;99.90
13482;DHT22;6813;60.352;15.746;2023-03-24T16:00:14;8.40;99.90
13482;DHT22;6813;60.352;15.746;2023-03-24T16:02:49;8.40;99.90
13482;DHT22;6813;60.352;15.746;2023-03-24T16:10:40;8.50;99.90
13482;DHT22;6813;60.352;15.746;2023-03-24T16:13:20;8.60;99.90
13482;DHT22;6813;60.352;15.746;2023-03-24T16:16:23;8.70;99.90
13482;DHT22;6813;60.352;15.746;2023-03-24T16:18:49;8.70;99.90
13482;DHT22;6813;60.352;15.746;2023-03-24T16:21:20;8.70;99.90
13482;DHT22;6813;60.352;15.746;2023-03-24T16:23:48;8.70;99.90
13482;DHT22;6813;60.352;15.746;2023-03-24T16:26:22;8.70;99.90
13482;DHT22;6813;60.352;15.746;2023-03-24T16:28:48;8.70;99.90
13482;DHT22;6813;60.352;15.746;2023-03-24T16:31:26;8.80;99.90
13482;DHT22;6813;60.352;15.746;2023-03-24T16:33:55;9.00;99.90
13482;DHT22;6813;60.352;15.746;2023-03-24T16:36:22;9.00;99.90
13482;DHT22;6813;60.352;15.746;2023-03-24T16:38:51;8.90;99.90
13482;DHT22;6813;60.352;15.746;2023-03-24T16:41:18;8.90;99.90
13482;DHT22;6813;60.352;15.746;2023-03-24T16:43:45;8.80;99.90
13482;DHT22;6813;60.352;15.746;2023-03-24T16:48:50;8.90;99.90
13482;DHT22;6813;60.352;15.746;2023-03-24T16:51:16;8.80;99.90
13482;DHT22;6813;60.352;15.746;2023-03-24T16:53:43;8.80;99.90
13482;DHT22;6813;60.352;15.746;2023-03-24T16:56:12;8.60;99.90
13482;DHT22;6813;60.352;15.746;2023-03-24T16:58:38;8.60;99.90
13482;DHT22;6813;60.352;15.746;2023-03-24T17:01:15;8.60;99.90
13482;DHT22;6813;60.352;15.746;2023-03-24T17:03:58;8.50;99.90
13482;DHT22;6813;60.352;15.746;2023-03-24T17:06:25;8.50;99.90
13482;DHT22;6813;60.352;15.746;2023-03-24T17:08:51;8.40;99.90
13482;DHT22;6813;60.352;15.746;2023-03-24T17:11:30;8.30;99.90
13482;DHT22;6813;60.352;15.746;2023-03-24T17:13:57;8.20;99.90
13482;DHT22;6813;60.352;15.746;2023-03-24T17:16:31;8.20;99.90
13482;DHT22;6813;60.352;15.746;2023-03-24T17:19:01;8.20;99.90
13482;DHT22;6813;60.352;15.746;2023-03-24T17:21:27;8.10;99.90
13482;DHT22;6813;60.352;15.746;2023-03-24T17:23:53;8.20;99.90
13482;DHT22;6813;60.352;15.746;2023-03-24T17:26:20;8.20;99.90
13482;DHT22;6813;60.352;15.746;2023-03-24T17:28:46;8.10;99.90
13482;DHT22;6813;60.352;15.746;2023-03-24T17:31:12;8.20;99.90
13482;DHT22;6813;60.352;15.746;2023-03-24T17:33:38;8.20;99.90
13482;DHT22;6813;60.352;15.746;2023-03-24T17:36:04;8.20;99.90
13482;DHT22;6813;60.352;15.746;2023-03-24T17:38:30;8.20;99.90
13482;DHT22;6813;60.352;15.746;2023-03-24T17:41:02;8.20;99.90
13482;DHT22;6813;60.352;15.746;2023-03-24T17:43:29;8.10;99.90
13482;DHT22;6813;60.352;15.746;2023-03-24T17:45:59;8.10;99.90
13482;DHT22;6813;60.352;15.746;2023-03-24T17:48:26;8.10;99.90
13482;DHT22;6813;60.352;15.746;2023-03-24T17:50:52;8.10;99.90
13482;DHT22;6813;60.352;15.746;2023-03-24T17:53:18;8.10;99.90
13482;DHT22;6813;60.352;15.746;2023-03-24T17:55:51;8.00;99.90
13482;DHT22;6813;60.352;15.746;2023-03-24T17:58:18;7.70;99.90
13482;DHT22;6813;60.352;15.746;2023-03-24T18:00:44;7.40;99.90
13482;DHT22;6813;60.352;15.746;2023-03-24T18:03:09;7.20;99.90
13482;DHT22;6813;60.352;15.746;2023-03-24T18:05:35;6.90;99.90
13482;DHT22;6813;60.352;15.746;2023-03-24T18:08:01;6.70;99.90
13482;DHT22;6813;60.352;15.746;2023-03-24T18:10:30;6.60;99.90
13482;DHT22;6813;60.352;15.746;2023-03-24T18:12:55;6.50;99.90
13482;DHT22;6813;60.352;15.746;2023-03-24T18:15:21;6.30;99.90
13482;DHT22;6813;60.352;15.746;2023-03-24T18:17:47;6.10;99.90
13482;DHT22;6813;60.352;15.746;2023-03-24T18:20:13;6.00;99.90
13482;DHT22;6813;60.352;15.746;2023-03-24T18:22:39;5.90;99.90
13482;DHT22;6813;60.352;15.746;2023-03-24T18:25:09;5.80;99.90
13482;DHT22;6813;60.352;15.746;2023-03-24T18:27:36;5.70;99.90
13482;DHT22;6813;60.352;15.746;2023-03-24T18:30:03;5.70;99.90
13482;DHT22;6813;60.352;15.746;2023-03-24T18:32:30;5.70;99.90
13482;DHT22;6813;60.352;15.746;2023-03-24T18:34:58;5.70;99.90
13482;DHT22;6813;60.352;15.746;2023-03-24T18:37:29;5.70;99.90
13482;DHT22;6813;60.352;15.746;2023-03-24T18:39:54;5.50;99.90
13482;DHT22;6813;60.352;15.746;2023-03-24T18:42:20;5.50;99.90
13482;DHT22;6813;60.352;15.746;2023-03-24T18:44:46;5.40;99.90
13482;DHT22;6813;60.352;15.746;2023-03-24T18:47:12;5.30;99.90
13482;DHT22;6813;60.352;15.746;2023-03-24T18:49:40;5.20;99.90
13482;DHT22;6813;60.352;15.746;2023-03-24T18:52:06;5.20;99.90